Terminal Aerodrome Forecast
Issued by NWS

Home | Current Version | Previous Version | Text Only | Print | Product List | Glossary On
Versions: 1 2 3 4 5 6 7 8 9 10 11 12 13 14
277
FTUS45 KFGZ 191141
TAFPRC
TAF
KPRC 191141Z 1912/2012 20008KT P6SM SCT015 BKN030 OVC060
      TEMPO 1912/1916 BKN020
     FM191600 17007KT 4SM BR OVC025
      TEMPO 1916/1920 4SM -RA OVC025
     FM192000 20009KT P6SM OVC015
      TEMPO 1920/1924 P6SM -RA OVC015
     FM200000 22007KT P6SM SCT040 OVC060=

USA.gov is the U.S. government's official web portal to all federal, state and local government web resources and services.